Main page
METAR-TAF:

METAR-TAF

Airports :

Cataratas del Iguazú International Airport

Iguaçu, Argentina

latitude: 25-44S, longitude: 054-28W, elevation: 270 m

Current weather observation

The report was made 40 minutes ago, at 01:00 UTC
Calm wind
Temperature 20°C
Humidity 100%
Pressure 1007 hPa
Visibility 10 km or more
no clouds below 1500 m and no cumulonimbus

METAR: SARI 210100Z 00000KT CAVOK 20/20 Q1007

Time: 22:40 (01:40 UTC)

Forecast

The report was made 2 hours and 40 minutes ago, at 23:00 UTC
Forecast valid from 21 at 00 UTC to 21 at 24 UTC
Wind 2 kt from variable directions
Visibility 10 km or more
Scattered clouds at a height of 4000 ft
Probability 30% :
Temporary
from 21 at 00 UTC to 21 at 05 UTC
Visibility: 7000 m
Scattered clouds at a height of 3000 ft
Few clouds at a height of 4000 ft, Towering cumulus.
rain showers,

TAF: SARI 202300Z 2100/2124 VRB02KT 9999 SCT040 TX33/2119Z TN21/2109Z PROB30 TEMPO 2100/2105 7000 SHRA SCT030 FEW040TCU

Weather observations and forecasts of more than 4000 airports (METAR and TAF reports).

The available stations are represented by yellow and red dots on the map.

Hover mouse over dot to see the name of the station.

Then click to see weather observations and forecasts.

To change the map : click on the green buttons with a black cross to zoom in, on the green button with a dash to zoom out, or on the green arrows for adjacent maps.


METAR-TAF: